createdAt,value
2022-08-07T00:00:53.169Z,60.43
2022-08-07T00:03:59.669Z,60.61
2022-08-07T00:07:09.574Z,60.59
2022-08-07T00:10:27.231Z,60.52
2022-08-07T00:13:37.359Z,60.93
2022-08-07T00:16:47.533Z,60.71
2022-08-07T00:20:00.993Z,60.72
2022-08-07T00:23:11.103Z,60.67
2022-08-07T00:26:31.407Z,60.56
2022-08-07T00:29:42.456Z,60.76
2022-08-07T00:32:53.080Z,60.65
2022-08-07T00:35:56.518Z,60.31
2022-08-07T00:39:01.701Z,61.01
2022-08-07T00:42:05.446Z,60.59
2022-08-07T00:45:16.066Z,60.03
2022-08-07T00:48:19.519Z,60.18
2022-08-07T00:51:58.304Z,60.22
2022-08-07T00:54:58.859Z,60.08
2022-08-07T00:58:12.883Z,60.48
2022-08-07T01:01:21.402Z,60.91
2022-08-07T01:04:24.643Z,61.00
2022-08-07T01:07:29.536Z,60.63
2022-08-07T01:10:33.633Z,61.08
2022-08-07T01:13:37.795Z,61.12
2022-08-07T01:16:43.245Z,61.15
2022-08-07T01:19:54.616Z,61.31
2022-08-07T01:23:12.452Z,61.18
2022-08-07T01:26:19.522Z,61.04
2022-08-07T01:29:27.873Z,60.93
2022-08-07T01:32:37.144Z,61.39
2022-08-07T01:35:53.074Z,61.35
2022-08-07T01:38:57.249Z,61.42
2022-08-07T01:42:36.861Z,61.13
2022-08-07T01:45:26.640Z,60.70
2022-08-07T01:48:46.809Z,60.40
2022-08-07T01:52:02.327Z,60.63
2022-08-07T01:55:10.665Z,60.40
2022-08-07T01:58:33.049Z,60.20
2022-08-07T02:02:02.317Z,60.21
2022-08-07T02:05:16.077Z,59.79
2022-08-07T02:08:42.386Z,60.17
2022-08-07T02:12:03.015Z,59.97
2022-08-07T02:15:12.585Z,59.81
2022-08-07T02:18:19.069Z,59.83
2022-08-07T02:21:23.766Z,59.43
2022-08-07T02:24:30.103Z,59.33
2022-08-07T02:27:34.502Z,58.97
2022-08-07T02:30:39.485Z,58.81
2022-08-07T02:34:01.687Z,58.97
2022-08-07T02:37:09.734Z,58.52
2022-08-07T02:40:30.782Z,58.33
2022-08-07T02:43:39.693Z,58.24
2022-08-07T02:46:46.882Z,58.89
2022-08-07T02:49:59.631Z,59.17
2022-08-07T02:53:10.911Z,58.68
2022-08-07T02:56:24.583Z,58.37
2022-08-07T02:59:32.356Z,58.79
2022-08-07T03:02:37.602Z,58.97
2022-08-07T03:05:57.235Z,59.12
2022-08-07T03:09:05.247Z,59.14
2022-08-07T03:12:16.141Z,59.79
2022-08-07T03:15:47.535Z,59.74
2022-08-07T03:18:52.773Z,60.03
2022-08-07T03:21:59.164Z,60.05
2022-08-07T03:25:04.922Z,60.08
2022-08-07T03:28:38.294Z,59.92
2022-08-07T03:31:46.459Z,59.17
2022-08-07T03:35:00.889Z,58.88
2022-08-07T03:38:21.298Z,59.47
2022-08-07T03:41:42.051Z,59.16
2022-08-07T03:44:53.510Z,59.20
2022-08-07T03:48:03.268Z,59.04
2022-08-07T03:51:07.959Z,59.00
2022-08-07T03:54:35.139Z,59.42
2022-08-07T03:58:35.122Z,59.62
2022-08-07T04:01:14.503Z,58.92
2022-08-07T04:04:21.479Z,59.26
2022-08-07T04:07:36.112Z,59.31
2022-08-07T04:10:54.129Z,58.97
2022-08-07T04:14:37.690Z,59.70
2022-08-07T04:18:56.893Z,59.16
2022-08-07T04:21:00.828Z,58.85
2022-08-07T04:24:07.651Z,58.83
2022-08-07T04:27:20.441Z,59.62
2022-08-07T04:30:35.726Z,59.10
2022-08-07T04:33:54.799Z,59.07
2022-08-07T04:36:58.474Z,59.27
2022-08-07T04:40:04.558Z,59.65
2022-08-07T04:43:11.689Z,59.27
2022-08-07T04:47:04.958Z,59.10
2022-08-07T04:50:43.665Z,58.68
2022-08-07T04:54:08.390Z,58.52
2022-08-07T04:58:11.333Z,57.98
2022-08-07T05:01:13.636Z,58.78
2022-08-07T05:04:31.398Z,58.48
2022-08-07T05:07:48.099Z,58.14
2022-08-07T05:11:02.566Z,58.87
2022-08-07T05:14:55.368Z,59.72
2022-08-07T05:17:51.727Z,59.29
2022-08-07T05:21:00.419Z,59.92
2022-08-07T05:24:08.778Z,60.60
2022-08-07T05:28:01.930Z,59.65
2022-08-07T05:30:41.187Z,59.35
2022-08-07T05:34:01.376Z,58.61
2022-08-07T05:37:12.737Z,58.15
2022-08-07T05:40:20.469Z,58.45
2022-08-07T05:43:49.705Z,58.77
2022-08-07T05:46:52.089Z,58.50
2022-08-07T05:49:58.124Z,60.78
2022-08-07T05:53:02.554Z,66.03
2022-08-07T05:56:12.401Z,65.11
2022-08-07T05:59:23.051Z,63.80
2022-08-07T06:02:33.678Z,73.51
2022-08-07T06:05:38.296Z,75.79
2022-08-07T06:08:44.840Z,76.27
2022-08-07T06:11:52.949Z,79.99
2022-08-07T06:15:05.085Z,78.04
2022-08-07T06:18:08.619Z,74.06
2022-08-07T06:22:15.028Z,77.13
2022-08-07T06:24:46.309Z,74.76
2022-08-07T06:31:47.054Z,76.35
2022-08-07T06:34:45.809Z,82.47
2022-08-07T06:37:49.656Z,83.76
2022-08-07T06:40:59.640Z,80.10
2022-08-07T06:44:06.610Z,78.29
2022-08-07T06:47:24.922Z,80.40
2022-08-07T06:50:35.975Z,78.05
2022-08-07T06:55:28.411Z,77.97
2022-08-07T06:56:59.638Z,77.49
2022-08-07T07:00:11.806Z,72.56
2022-08-07T07:03:40.129Z,71.49
2022-08-07T07:06:39.406Z,70.20
2022-08-07T07:09:52.856Z,65.57
2022-08-07T07:13:55.892Z,65.91
2022-08-07T07:16:49.522Z,63.55
2022-08-07T07:19:59.775Z,64.56
2022-08-07T07:24:08.869Z,60.41
2022-08-07T07:26:33.330Z,63.55
2022-08-07T07:30:09.206Z,61.42
2022-08-07T07:33:11.547Z,60.97
2022-08-07T07:36:17.462Z,60.58
2022-08-07T07:39:25.614Z,59.10
2022-08-07T07:42:32.652Z,58.56
2022-08-07T07:46:36.867Z,59.49
2022-08-07T07:49:00.121Z,60.99
2022-08-07T07:52:13.045Z,64.87
2022-08-07T07:55:19.765Z,67.37
2022-08-07T07:58:23.714Z,64.84
2022-08-07T08:02:03.420Z,62.67
2022-08-07T08:04:57.623Z,63.36
2022-08-07T08:08:02.004Z,57.56
2022-08-07T08:11:16.600Z,60.10
2022-08-07T08:14:34.517Z,55.31
2022-08-07T08:17:57.097Z,53.73
2022-08-07T08:21:02.655Z,52.37
2022-08-07T08:24:36.491Z,52.24
2022-08-07T08:27:56.957Z,50.97
2022-08-07T08:31:06.601Z,49.32
2022-08-07T08:34:19.033Z,47.54
2022-08-07T08:38:01.012Z,48.69
2022-08-07T08:41:08.057Z,46.97
2022-08-07T08:44:53.358Z,47.16
2022-08-07T08:48:28.285Z,44.63
2022-08-07T08:51:49.740Z,46.01
2022-08-07T08:55:53.852Z,45.53
2022-08-07T08:58:54.467Z,44.92
2022-08-07T09:02:34.707Z,44.40
2022-08-07T09:05:56.757Z,45.65
2022-08-07T09:09:36.991Z,41.85
2022-08-07T09:12:54.857Z,41.62
2022-08-07T09:16:42.043Z,41.35
2022-08-07T09:20:34.729Z,41.74
2022-08-07T09:24:30.645Z,39.90
2022-08-07T09:28:00.217Z,40.00
2022-08-07T09:31:27.649Z,40.03
2022-08-07T09:36:02.953Z,41.81
2022-08-07T09:38:50.198Z,39.87
2022-08-07T09:42:32.992Z,40.67
2022-08-07T09:47:27.431Z,37.63
2022-08-07T09:50:00.531Z,37.51
2022-08-07T09:53:10.118Z,38.54
2022-08-07T09:56:34.119Z,38.76
2022-08-07T10:00:05.620Z,37.85
2022-08-07T10:04:05.569Z,35.97
2022-08-07T10:07:25.912Z,36.15
2022-08-07T10:11:59.724Z,34.14
2022-08-07T10:14:39.438Z,34.12
2022-08-07T10:18:36.525Z,31.58
2022-08-07T10:22:14.473Z,30.92
2022-08-07T10:25:42.062Z,30.64
2022-08-07T10:29:17.327Z,30.15
2022-08-07T10:32:59.884Z,29.09
2022-08-07T10:36:29.835Z,30.20
2022-08-07T10:39:57.653Z,31.63
2022-08-07T10:43:34.829Z,29.34
2022-08-07T10:46:48.995Z,29.15
2022-08-07T10:50:15.208Z,28.71
2022-08-07T10:53:43.917Z,27.71
2022-08-07T10:56:49.383Z,29.51
2022-08-07T11:00:09.943Z,29.25
2022-08-07T11:04:16.967Z,27.47
2022-08-07T11:07:58.388Z,27.08
2022-08-07T11:11:20.199Z,25.39
2022-08-07T11:14:45.195Z,25.28
2022-08-07T11:18:18.830Z,26.92
2022-08-07T11:21:54.545Z,28.00
2022-08-07T11:25:23.227Z,26.91
2022-08-07T11:28:53.486Z,27.96
2022-08-07T11:32:10.687Z,26.18
2022-08-07T11:35:30.641Z,25.99
2022-08-07T11:38:50.523Z,26.59
2022-08-07T11:42:18.757Z,27.81
2022-08-07T11:45:37.230Z,28.25
2022-08-07T11:49:51.563Z,27.25
2022-08-07T11:53:01.380Z,26.25
2022-08-07T11:56:28.299Z,26.41
2022-08-07T12:00:12.269Z,27.26
2022-08-07T12:03:44.561Z,25.39
2022-08-07T12:07:09.028Z,26.78
2022-08-07T12:10:35.477Z,26.37
2022-08-07T12:13:53.709Z,26.40
2022-08-07T12:17:04.313Z,25.59
2022-08-07T12:20:30.683Z,24.97
2022-08-07T12:24:06.329Z,24.38
2022-08-07T12:27:18.653Z,25.62
2022-08-07T12:30:39.189Z,25.21
2022-08-07T12:34:00.676Z,25.39
2022-08-07T12:37:08.488Z,24.38
2022-08-07T12:40:46.351Z,24.50
2022-08-07T12:44:02.907Z,26.39
2022-08-07T12:47:31.120Z,26.32
2022-08-07T12:50:58.051Z,27.15
2022-08-07T12:54:36.396Z,29.29
2022-08-07T12:57:29.924Z,30.12
2022-08-07T13:00:54.726Z,29.93
2022-08-07T13:04:04.997Z,31.84
2022-08-07T13:08:14.647Z,31.17
2022-08-07T13:12:02.242Z,31.04
2022-08-07T13:15:41.274Z,30.73
2022-08-07T13:19:45.580Z,31.78
2022-08-07T13:22:53.751Z,31.95
2022-08-07T13:26:16.065Z,32.26
2022-08-07T13:29:34.635Z,32.52
2022-08-07T13:32:43.231Z,34.17
2022-08-07T13:36:17.517Z,34.75
2022-08-07T13:40:34.232Z,33.49
2022-08-07T13:42:58.211Z,34.60
2022-08-07T13:46:16.439Z,34.05
2022-08-07T13:50:33.343Z,33.64
2022-08-07T13:52:47.010Z,33.69
2022-08-07T13:55:54.613Z,32.84
2022-08-07T13:59:05.634Z,33.19
2022-08-07T14:02:19.399Z,34.68
2022-08-07T14:05:37.444Z,33.07
2022-08-07T14:08:53.727Z,33.70
2022-08-07T14:12:07.462Z,33.99
2022-08-07T14:15:31.640Z,34.10
2022-08-07T14:18:45.833Z,34.29
2022-08-07T14:22:01.717Z,32.97
2022-08-07T14:25:14.677Z,33.74
2022-08-07T14:31:42.948Z,34.00
2022-08-07T14:38:31.355Z,35.13
2022-08-07T14:42:19.942Z,33.94
2022-08-07T14:45:22.389Z,34.41
2022-08-07T14:48:33.068Z,36.27
2022-08-07T14:52:02.801Z,33.27
2022-08-07T14:54:59.015Z,34.21
2022-08-07T14:58:04.159Z,34.49
2022-08-07T15:01:21.669Z,33.57
2022-08-07T15:04:26.274Z,34.08
2022-08-07T15:07:47.383Z,33.57
2022-08-07T15:10:59.228Z,33.83
2022-08-07T15:14:10.087Z,34.27
2022-08-07T15:17:17.117Z,35.05
2022-08-07T15:20:30.678Z,33.33
2022-08-07T15:25:15.910Z,32.93
2022-08-07T15:27:19.291Z,33.39
2022-08-07T15:30:28.597Z,33.41
2022-08-07T15:33:42.660Z,33.14
2022-08-07T15:37:02.812Z,33.73
2022-08-07T15:40:13.975Z,34.10
2022-08-07T15:53:51.574Z,33.04
2022-08-07T15:57:01.465Z,33.45
2022-08-07T16:00:06.759Z,33.25
2022-08-07T16:03:21.825Z,33.63
2022-08-07T16:06:36.731Z,32.99
2022-08-07T16:09:56.219Z,33.20
2022-08-07T16:13:57.587Z,33.06
2022-08-07T16:17:14.978Z,32.92
2022-08-07T16:22:01.419Z,32.88
2022-08-07T16:24:36.200Z,32.28
2022-08-07T16:27:49.706Z,32.98
2022-08-07T16:31:51.754Z,33.23
2022-08-07T16:34:49.618Z,33.56
2022-08-07T16:38:57.355Z,34.37
2022-08-07T16:41:57.239Z,34.39
2022-08-07T16:45:14.884Z,34.41
2022-08-07T16:49:04.045Z,34.46
2022-08-07T16:52:51.052Z,34.78
2022-08-07T16:56:00.166Z,35.21
2022-08-07T16:59:17.642Z,35.37
2022-08-07T17:02:53.691Z,35.68
2022-08-07T17:06:31.454Z,36.94
2022-08-07T17:14:19.357Z,35.92
2022-08-07T17:44:42.783Z,38.74
2022-08-07T17:48:04.569Z,38.59
2022-08-07T17:58:54.306Z,39.40
2022-08-07T18:02:25.792Z,40.14
2022-08-07T18:06:09.525Z,40.48
2022-08-07T18:10:04.739Z,39.12
2022-08-07T18:16:36.362Z,39.58
2022-08-07T18:21:07.005Z,39.83
2022-08-07T18:24:02.056Z,39.05
2022-08-07T18:27:17.389Z,39.30
2022-08-07T18:30:33.050Z,40.25
2022-08-07T18:38:59.711Z,39.77
2022-08-07T18:41:45.336Z,37.63
2022-08-07T18:59:47.564Z,38.45
2022-08-07T19:03:12.161Z,37.98
2022-08-07T19:06:53.223Z,37.77
2022-08-07T19:10:05.819Z,37.98
2022-08-07T19:13:29.414Z,37.44
2022-08-07T19:16:43.071Z,37.71
2022-08-07T19:20:29.116Z,38.19
2022-08-07T19:23:58.423Z,38.83
2022-08-07T19:31:00.217Z,39.85
2022-08-07T19:33:57.847Z,39.88
2022-08-07T19:37:17.475Z,39.83
2022-08-07T19:40:30.794Z,40.77
2022-08-07T19:43:44.118Z,40.19
2022-08-07T19:47:07.627Z,40.19
2022-08-07T19:50:45.120Z,39.84
2022-08-07T19:54:34.716Z,39.67
2022-08-07T19:58:02.349Z,39.91
2022-08-07T20:00:28.247Z,40.00
2022-08-07T20:03:36.480Z,40.22
2022-08-07T20:06:42.796Z,40.39
2022-08-07T20:10:37.975Z,40.46
2022-08-07T20:13:22.703Z,40.96
2022-08-07T20:16:36.410Z,41.39
2022-08-07T20:19:58.802Z,41.86
2022-08-07T20:23:22.955Z,42.75
2022-08-07T20:26:45.156Z,42.63
2022-08-07T20:29:59.399Z,43.16
2022-08-07T20:33:36.811Z,43.42
2022-08-07T20:36:27.254Z,43.63
2022-08-07T20:40:02.248Z,44.04
2022-08-07T20:42:58.840Z,44.69
2022-08-07T20:46:27.745Z,45.26
2022-08-07T20:50:00.447Z,46.28
2022-08-07T20:52:51.879Z,47.21
2022-08-07T20:56:01.375Z,45.98
2022-08-07T20:59:06.088Z,46.30
2022-08-07T21:02:54.372Z,47.06
2022-08-07T21:06:21.594Z,46.85
2022-08-07T21:09:52.121Z,46.98
2022-08-07T21:12:59.480Z,46.99
2022-08-07T21:16:05.258Z,47.68
2022-08-07T21:19:13.886Z,49.02
2022-08-07T21:22:20.545Z,48.04
2022-08-07T21:25:50.915Z,48.25
2022-08-07T21:29:07.061Z,48.35
2022-08-07T21:32:49.707Z,47.18
2022-08-07T21:36:12.230Z,47.22
2022-08-07T21:40:10.003Z,47.02
2022-08-07T21:43:23.081Z,47.25
2022-08-07T21:46:47.508Z,45.93
2022-08-07T21:50:32.052Z,46.15
2022-08-07T21:53:52.502Z,46.28
2022-08-07T21:57:30.889Z,45.56
2022-08-07T22:00:42.455Z,45.50
2022-08-07T22:04:09.245Z,46.25
2022-08-07T22:07:31.454Z,46.42
2022-08-07T22:10:57.314Z,45.99
2022-08-07T22:14:05.412Z,46.70
2022-08-07T22:17:20.812Z,45.59
2022-08-07T22:20:46.694Z,46.16
2022-08-07T22:23:56.738Z,45.60
2022-08-07T22:27:34.050Z,45.81
2022-08-07T22:31:45.078Z,46.83
2022-08-07T22:34:53.644Z,46.57
2022-08-07T22:38:05.443Z,46.78
2022-08-07T22:41:16.820Z,46.35
2022-08-07T22:44:25.429Z,46.68
2022-08-07T22:48:31.402Z,46.11
2022-08-07T22:51:53.801Z,45.94
2022-08-07T22:55:31.468Z,46.55
2022-08-07T22:58:55.533Z,46.59
2022-08-07T23:02:12.479Z,47.74
2022-08-07T23:06:08.709Z,47.60
2022-08-07T23:10:04.610Z,48.02
2022-08-07T23:13:19.023Z,48.19
2022-08-07T23:16:46.912Z,49.16
2022-08-07T23:20:51.710Z,50.17
2022-08-07T23:24:23.639Z,50.95
2022-08-07T23:28:20.268Z,51.96
2022-08-07T23:31:18.874Z,52.66
2022-08-07T23:35:12.069Z,52.44
2022-08-07T23:38:36.606Z,51.66
2022-08-07T23:42:21.631Z,50.37
2022-08-07T23:46:01.341Z,50.66
2022-08-07T23:49:42.026Z,50.72
2022-08-07T23:53:17.043Z,52.01
2022-08-07T23:56:41.685Z,52.45
